Hikone, Japan

11:27 AM JST on July 26, 2016 (GMT +0900)
Nagoya / Chubu | | Change Station

Elev 16 ft 34.86 °N, 136.81 °E | Updated 27 minutes ago

Light Rain Showers
Light Showers Rain
73 °F
Feels Like 73 °F
N
10
Wind Variable Wind from SE

Today
High -- | Low -- °F
--% Chance of Precip.
Yesterday
High -- | Low -- °F
Precip. -- in
Pressure 29.86 in
Visibility 3.7 miles
Clouds Few 800 ft
Scattered Clouds 1200 ft
Mostly Cloudy 1500 ft
Dew Point 70 °F
Humidity 88%
Rainfall 0.00 in
Snow Depth Not available.
4:59 AM 7:03 PM
Waning Gibbous, 60% visible
METAR RJGG 260200Z 13009KT 6000 -SHRA FEW008 SCT012 BKN015 23/21 Q1011 TEMPO 4000 SHRA BR FEW008 BKN012
Pressure 29.86 in
Visibility 3.7 miles
Clouds Few 800 ft
Scattered Clouds 1200 ft
Mostly Cloudy 1500 ft
Dew Point 70 °F
Humidity 88%
Rainfall 0.00 in
Snow Depth Not available.
4:59 AM 7:03 PM
Waning Gibbous, 60% visible
METAR RJGG 260200Z 13009KT 6000 -SHRA FEW008 SCT012 BKN015 23/21 Q1011 TEMPO 4000 SHRA BR FEW008 BKN012

10-Day Weather Forecast

No radar image for this location.
×

Almanac

Astronomy

Jul. 26, 2016 Rise Set
Actual Time
Civil Twilight
Nautical Twilight
Astronomical Twilight
Moon
Length of Visible Light
Length of Day
Tomorrow will be .
, % of the Moon is Illuminated

Today's Extremes

Country Highs Country Lows

Community

WunderPhotos

Upload Photos

1,927,503 photos uploaded!

WunderBlog® & News

Nearby

Air Quality

  Air Quality AQ Index Pollutant
Not available.

Snow Depth

Station Depth Elevation

Earthquake Activity

City Distance Mag. Time & Date
Minimum magnitude displayed is 2.5.

Coastal Water Temperatures

Place Temperature

Stations

Nearby Weather Stations

Station Location Temp. Windchill Dew Point Humidity Wind Precip. Elev Updated Type